createdAt,value
2022-09-15T00:03:06.151Z,14.92
2022-09-15T00:08:30.864Z,14.91
2022-09-15T00:13:57.256Z,14.88
2022-09-15T00:19:22.865Z,14.87
2022-09-15T00:24:49.253Z,14.93
2022-09-15T00:30:15.837Z,15.03
2022-09-15T00:35:42.102Z,15.06
2022-09-15T00:41:07.633Z,15.16
2022-09-15T00:46:35.943Z,15.10
2022-09-15T00:52:03.888Z,14.91
2022-09-15T00:57:32.917Z,14.81
2022-09-15T01:03:00.160Z,14.89
2022-09-15T01:08:29.815Z,14.94
2022-09-15T01:13:56.031Z,14.95
2022-09-15T01:19:49.048Z,14.87
2022-09-15T01:25:27.747Z,14.79
2022-09-15T01:31:04.310Z,14.81
2022-09-15T01:36:37.572Z,14.85
2022-09-15T01:42:06.912Z,14.89
2022-09-15T01:47:37.138Z,15.03
2022-09-15T01:53:05.268Z,15.24
2022-09-15T01:58:29.056Z,15.30
2022-09-15T02:03:57.884Z,15.32
2022-09-15T02:09:26.094Z,15.36
2022-09-15T02:14:57.917Z,15.50
2022-09-15T02:20:34.312Z,15.53
2022-09-15T02:26:05.059Z,15.55
2022-09-15T02:31:33.079Z,15.55
2022-09-15T02:36:59.160Z,15.52
2022-09-15T02:42:25.887Z,15.53
2022-09-15T02:47:50.653Z,15.57
2022-09-15T02:53:19.368Z,15.63
2022-09-15T02:58:43.846Z,15.69
2022-09-15T03:04:08.281Z,15.65
2022-09-15T03:09:34.216Z,15.63
2022-09-15T03:14:58.360Z,15.54
2022-09-15T03:20:24.473Z,15.34
2022-09-15T03:25:49.760Z,15.34
2022-09-15T03:31:14.930Z,15.34
2022-09-15T03:36:38.574Z,15.36
2022-09-15T03:42:05.940Z,15.29
2022-09-15T03:47:29.724Z,15.34
2022-09-15T03:52:58.159Z,15.44
2022-09-15T03:58:25.979Z,15.48
2022-09-15T04:03:53.347Z,15.30
2022-09-15T04:09:20.475Z,15.32
2022-09-15T04:14:47.743Z,15.42
2022-09-15T04:20:12.726Z,15.46
2022-09-15T04:25:37.669Z,15.53
2022-09-15T04:31:09.179Z,15.66
2022-09-15T04:36:33.161Z,15.82
2022-09-15T04:41:58.198Z,15.92
2022-09-15T04:47:24.456Z,16.00
2022-09-15T04:52:49.221Z,16.03
2022-09-15T04:58:13.435Z,16.19
2022-09-15T05:03:39.084Z,16.50
2022-09-15T05:09:09.256Z,16.82
2022-09-15T05:14:35.103Z,17.05
2022-09-15T05:20:01.018Z,17.26
2022-09-15T05:25:26.132Z,17.21
2022-09-15T05:30:52.209Z,17.55
2022-09-15T05:36:19.280Z,18.20
2022-09-15T05:41:43.500Z,18.64
2022-09-15T05:47:07.641Z,18.60
2022-09-15T05:52:33.697Z,18.45
2022-09-15T05:57:59.377Z,18.36
2022-09-15T06:03:30.008Z,18.36
2022-09-15T06:08:59.041Z,18.16
2022-09-15T06:14:24.409Z,18.54
2022-09-15T06:19:48.494Z,19.00
2022-09-15T06:25:14.705Z,19.53
2022-09-15T06:30:40.569Z,19.84
2022-09-15T06:36:07.471Z,19.42
2022-09-15T06:41:58.471Z,19.50
2022-09-15T06:47:17.479Z,20.10
2022-09-15T06:52:44.093Z,19.85
2022-09-15T06:58:12.208Z,20.83
2022-09-15T07:03:37.418Z,20.66
2022-09-15T07:09:02.467Z,20.10
2022-09-15T07:14:27.839Z,19.94
2022-09-15T07:19:52.487Z,20.08
2022-09-15T07:25:18.278Z,20.29
2022-09-15T07:30:45.541Z,20.67
2022-09-15T07:36:12.084Z,20.95
2022-09-15T07:41:35.571Z,21.23
2022-09-15T07:47:03.261Z,21.82
2022-09-15T07:52:27.143Z,22.21
2022-09-15T07:57:58.484Z,22.36
2022-09-15T08:03:24.696Z,22.02
2022-09-15T08:08:50.301Z,21.99
2022-09-15T08:14:18.755Z,22.75
2022-09-15T08:19:44.142Z,23.11
2022-09-15T08:25:08.993Z,23.29
2022-09-15T08:30:33.666Z,23.39
2022-09-15T08:36:04.969Z,23.10
2022-09-15T08:41:33.565Z,23.42
2022-09-15T08:47:05.583Z,23.32
2022-09-15T08:52:36.401Z,23.71
2022-09-15T08:58:01.810Z,24.00
2022-09-15T09:03:48.725Z,24.20
2022-09-15T09:09:24.543Z,24.29
2022-09-15T09:15:04.397Z,23.64
2022-09-15T09:20:44.420Z,23.85
2022-09-15T09:26:13.477Z,23.49
2022-09-15T09:31:38.179Z,23.45
2022-09-15T09:37:11.077Z,23.38
2022-09-15T09:42:37.191Z,23.10
2022-09-15T09:48:07.467Z,22.93
2022-09-15T09:53:33.069Z,22.67
2022-09-15T09:58:58.284Z,22.59
2022-09-15T10:04:24.192Z,22.54
2022-09-15T10:09:52.925Z,22.16
2022-09-15T10:15:25.302Z,21.75
2022-09-15T10:20:52.521Z,21.32
2022-09-15T10:26:23.715Z,21.00
2022-09-15T10:31:51.369Z,20.89
2022-09-15T10:37:26.126Z,20.83
2022-09-15T10:42:53.228Z,20.58
2022-09-15T10:48:32.620Z,20.41
2022-09-15T10:54:13.832Z,20.36
2022-09-15T10:59:47.296Z,20.17
2022-09-15T11:05:27.149Z,19.96
2022-09-15T11:10:59.724Z,19.59
2022-09-15T11:16:44.069Z,19.57
2022-09-15T11:22:15.984Z,19.57
2022-09-15T11:27:44.333Z,19.55
2022-09-15T11:33:16.248Z,19.44
2022-09-15T11:38:49.765Z,19.39
2022-09-15T11:44:26.137Z,19.31
2022-09-15T11:49:57.033Z,19.17
2022-09-15T11:55:28.348Z,19.17
2022-09-15T12:00:57.691Z,19.15
2022-09-15T12:06:27.925Z,19.08
2022-09-15T12:11:59.404Z,19.02
2022-09-15T12:17:30.925Z,18.97
2022-09-15T12:23:01.232Z,18.96
2022-09-15T12:28:39.622Z,19.02
2022-09-15T12:34:05.936Z,19.08
2022-09-15T12:39:37.416Z,19.16
2022-09-15T12:45:06.089Z,19.29
2022-09-15T12:50:33.306Z,19.35
2022-09-15T12:55:59.877Z,19.45
2022-09-15T13:01:49.745Z,19.59
2022-09-15T13:07:33.922Z,19.76
2022-09-15T13:13:10.756Z,19.96
2022-09-15T13:18:36.346Z,20.08
2022-09-15T13:24:02.080Z,20.19
2022-09-15T13:29:27.540Z,20.25
2022-09-15T13:35:30.675Z,20.29
2022-09-15T13:41:33.346Z,20.38
2022-09-15T13:47:14.132Z,20.46
2022-09-15T13:52:57.132Z,20.73
2022-09-15T14:04:13.218Z,20.86
2022-09-15T14:09:47.538Z,20.71
2022-09-15T14:15:21.240Z,20.65
2022-09-15T14:20:45.577Z,20.60
2022-09-15T14:26:15.117Z,20.55
2022-09-15T14:31:41.103Z,20.43
2022-09-15T14:37:07.332Z,20.23
2022-09-15T14:42:37.094Z,19.96
2022-09-15T14:48:02.687Z,19.84
2022-09-15T14:53:29.104Z,19.74
2022-09-15T14:58:56.708Z,19.71
2022-09-15T15:04:26.674Z,19.67
2022-09-15T15:09:56.557Z,19.67
2022-09-15T15:15:24.674Z,19.67
2022-09-15T15:20:51.184Z,19.66
2022-09-15T15:26:27.961Z,19.64
2022-09-15T15:31:53.753Z,19.63
2022-09-15T15:37:26.532Z,19.69
2022-09-15T15:42:56.505Z,19.71
2022-09-15T15:48:30.113Z,19.67
2022-09-15T15:53:58.723Z,19.64
2022-09-15T15:59:23.317Z,19.67
2022-09-15T16:04:50.222Z,19.67
2022-09-15T16:10:17.792Z,19.60
2022-09-15T16:15:43.191Z,19.47
2022-09-15T16:21:17.255Z,19.40
2022-09-15T16:26:41.984Z,19.35
2022-09-15T16:32:08.128Z,19.26
2022-09-15T16:37:34.589Z,19.23
2022-09-15T16:43:02.131Z,19.27
2022-09-15T16:48:27.320Z,19.26
2022-09-15T16:53:53.249Z,19.17
2022-09-15T16:59:17.904Z,19.04
2022-09-15T17:04:43.929Z,19.09
2022-09-15T17:10:10.986Z,19.15
2022-09-15T17:15:38.393Z,19.14
2022-09-15T17:21:04.558Z,19.10
2022-09-15T17:26:31.604Z,18.85
2022-09-15T17:31:55.995Z,18.73
2022-09-15T17:37:20.170Z,18.67
2022-09-15T17:42:46.074Z,18.64
2022-09-15T17:48:12.028Z,18.65
2022-09-15T17:53:35.925Z,18.58
2022-09-15T17:59:01.591Z,18.57
2022-09-15T18:04:25.790Z,18.56
2022-09-15T18:09:50.466Z,18.48
2022-09-15T18:15:18.727Z,18.42
2022-09-15T18:20:43.407Z,18.37
2022-09-15T18:26:07.988Z,18.39
2022-09-15T18:31:33.245Z,18.31
2022-09-15T18:36:59.197Z,18.31
2022-09-15T18:42:28.488Z,18.35
2022-09-15T18:47:56.598Z,18.28
2022-09-15T18:53:21.029Z,18.15
2022-09-15T18:58:45.068Z,18.14
2022-09-15T19:04:11.103Z,18.19
2022-09-15T19:09:35.058Z,18.20
2022-09-15T19:14:59.261Z,18.19
2022-09-15T19:20:26.441Z,18.21
2022-09-15T19:25:50.758Z,18.25
2022-09-15T19:31:15.390Z,18.30
2022-09-15T19:36:41.168Z,18.40
2022-09-15T19:42:05.467Z,18.46
2022-09-15T19:47:29.353Z,18.49
2022-09-15T19:52:59.424Z,18.50
2022-09-15T19:58:23.683Z,18.50
2022-09-15T20:03:47.833Z,18.43
2022-09-15T20:09:13.231Z,18.32
2022-09-15T20:14:38.297Z,18.26
2022-09-15T20:20:02.631Z,18.30
2022-09-15T20:25:27.969Z,18.33
2022-09-15T20:31:03.753Z,18.36
2022-09-15T20:36:29.618Z,18.35
2022-09-15T20:41:58.088Z,18.40
2022-09-15T20:47:22.352Z,18.39
2022-09-15T20:52:46.453Z,18.39
2022-09-15T20:58:12.475Z,18.40
2022-09-15T21:03:39.051Z,18.44
2022-09-15T21:09:05.066Z,18.43
2022-09-15T21:14:31.140Z,18.46
2022-09-15T21:19:56.136Z,18.52
2022-09-15T21:25:20.822Z,18.36
2022-09-15T21:30:47.020Z,18.20
2022-09-15T21:36:16.132Z,18.20
2022-09-15T21:41:40.759Z,18.24
2022-09-15T21:47:06.387Z,18.17
2022-09-15T21:52:32.390Z,18.13
2022-09-15T21:57:56.113Z,18.14
2022-09-15T22:03:21.624Z,18.16
2022-09-15T22:08:46.831Z,18.16
2022-09-15T22:14:13.263Z,18.17
2022-09-15T22:19:39.949Z,18.17
2022-09-15T22:25:04.209Z,18.15
2022-09-15T22:30:29.448Z,18.13
2022-09-15T22:35:55.348Z,18.07
2022-09-15T22:41:21.201Z,18.00
2022-09-15T22:46:46.105Z,17.95
2022-09-15T22:52:11.490Z,17.99
2022-09-15T22:57:39.612Z,18.01
2022-09-15T23:03:03.510Z,17.97
2022-09-15T23:08:29.646Z,17.95
2022-09-15T23:13:55.403Z,17.88
2022-09-15T23:19:19.703Z,17.87
2022-09-15T23:24:45.369Z,17.85
2022-09-15T23:30:11.444Z,17.85
2022-09-15T23:35:36.669Z,17.85
2022-09-15T23:41:02.408Z,17.91
2022-09-15T23:46:26.440Z,17.87
2022-09-15T23:51:50.618Z,17.80
2022-09-15T23:57:16.967Z,17.74
